sensor_id;sensor_type;location;lat;lon;timestamp;noise_LAeq;noise_LA_min;noise_LA_max;noise_LA01;noise_LA95
72415;Laerm;60995;52.154;4.498;2023-05-07T00:01:36;45.08;38.01;53.20;;
72415;Laerm;60995;52.154;4.498;2023-05-07T00:03:53;45.54;39.92;53.50;;
72415;Laerm;60995;52.154;4.498;2023-05-07T00:06:10;44.59;38.96;55.65;;
72415;Laerm;60995;52.154;4.498;2023-05-07T00:08:31;46.24;38.91;56.17;;
72415;Laerm;60995;52.154;4.498;2023-05-07T00:10:47;45.87;37.88;55.21;;
72415;Laerm;60995;52.154;4.498;2023-05-07T00:13:04;45.82;39.18;54.44;;
72415;Laerm;60995;52.154;4.498;2023-05-07T00:15:21;46.77;40.59;55.32;;
72415;Laerm;60995;52.154;4.498;2023-05-07T00:17:38;46.00;39.77;53.71;;
72415;Laerm;60995;52.154;4.498;2023-05-07T00:19:54;46.36;38.85;63.87;;
72415;Laerm;60995;52.154;4.498;2023-05-07T00:22:11;46.91;39.10;54.08;;
72415;Laerm;60995;52.154;4.498;2023-05-07T00:24:27;44.86;38.05;52.46;;
72415;Laerm;60995;52.154;4.498;2023-05-07T00:26:44;46.35;38.75;59.60;;
72415;Laerm;60995;52.154;4.498;2023-05-07T00:29:00;44.97;38.78;53.25;;
72415;Laerm;60995;52.154;4.498;2023-05-07T00:31:16;45.25;38.30;53.73;;
72415;Laerm;60995;52.154;4.498;2023-05-07T00:33:33;43.82;37.57;52.20;;
72415;Laerm;60995;52.154;4.498;2023-05-07T00:35:49;43.07;37.99;50.91;;
72415;Laerm;60995;52.154;4.498;2023-05-07T00:38:06;45.24;36.71;54.44;;
72415;Laerm;60995;52.154;4.498;2023-05-07T00:40:22;45.85;38.60;58.17;;
72415;Laerm;60995;52.154;4.498;2023-05-07T00:42:38;44.67;38.31;55.16;;
72415;Laerm;60995;52.154;4.498;2023-05-07T00:44:55;43.72;38.06;51.70;;
72415;Laerm;60995;52.154;4.498;2023-05-07T00:47:11;44.30;38.04;53.47;;
72415;Laerm;60995;52.154;4.498;2023-05-07T00:49:38;45.25;37.75;56.25;;
72415;Laerm;60995;52.154;4.498;2023-05-07T00:51:55;44.63;38.25;53.19;;
72415;Laerm;60995;52.154;4.498;2023-05-07T00:54:13;44.20;38.49;52.19;;
72415;Laerm;60995;52.154;4.498;2023-05-07T00:56:30;43.91;38.35;52.04;;
72415;Laerm;60995;52.154;4.498;2023-05-07T00:58:48;43.92;37.21;52.65;;
72415;Laerm;60995;52.154;4.498;2023-05-07T01:01:05;45.15;38.80;57.32;;
72415;Laerm;60995;52.154;4.498;2023-05-07T01:03:22;44.82;38.80;52.27;;
72415;Laerm;60995;52.154;4.498;2023-05-07T01:05:39;45.59;37.76;53.40;;
72415;Laerm;60995;52.154;4.498;2023-05-07T01:07:58;44.80;39.59;51.57;;
72415;Laerm;60995;52.154;4.498;2023-05-07T01:10:17;46.09;38.73;53.83;;
72415;Laerm;60995;52.154;4.498;2023-05-07T01:12:35;44.74;38.24;53.06;;
72415;Laerm;60995;52.154;4.498;2023-05-07T01:14:53;44.06;38.49;52.35;;
72415;Laerm;60995;52.154;4.498;2023-05-07T01:17:09;44.32;38.34;54.83;;
72415;Laerm;60995;52.154;4.498;2023-05-07T01:19:28;44.91;39.05;53.42;;
72415;Laerm;60995;52.154;4.498;2023-05-07T01:21:48;42.79;37.62;51.66;;
72415;Laerm;60995;52.154;4.498;2023-05-07T01:24:05;46.67;37.63;56.70;;
72415;Laerm;60995;52.154;4.498;2023-05-07T01:26:22;43.33;37.68;51.37;;
72415;Laerm;60995;52.154;4.498;2023-05-07T01:28:39;44.87;38.14;53.55;;
72415;Laerm;60995;52.154;4.498;2023-05-07T01:31:01;47.00;39.52;55.61;;
72415;Laerm;60995;52.154;4.498;2023-05-07T01:33:22;45.89;38.98;53.95;;
72415;Laerm;60995;52.154;4.498;2023-05-07T01:35:41;44.79;38.35;52.68;;
72415;Laerm;60995;52.154;4.498;2023-05-07T01:38:01;44.23;37.79;53.22;;
72415;Laerm;60995;52.154;4.498;2023-05-07T01:40:21;46.58;39.60;58.47;;
72415;Laerm;60995;52.154;4.498;2023-05-07T01:42:38;45.08;38.66;53.07;;
72415;Laerm;60995;52.154;4.498;2023-05-07T01:44:54;46.36;39.49;53.21;;
72415;Laerm;60995;52.154;4.498;2023-05-07T01:47:12;47.50;40.84;57.86;;
72415;Laerm;60995;52.154;4.498;2023-05-07T01:49:29;45.32;39.24;53.20;;
72415;Laerm;60995;52.154;4.498;2023-05-07T01:51:46;47.04;41.18;57.06;;
72415;Laerm;60995;52.154;4.498;2023-05-07T01:54:03;45.17;37.67;55.80;;
72415;Laerm;60995;52.154;4.498;2023-05-07T01:56:19;45.51;39.64;52.20;;
72415;Laerm;60995;52.154;4.498;2023-05-07T01:58:38;45.08;38.99;52.57;;
72415;Laerm;60995;52.154;4.498;2023-05-07T02:00:54;45.34;38.15;53.95;;
72415;Laerm;60995;52.154;4.498;2023-05-07T02:03:11;44.68;39.10;51.58;;
72415;Laerm;60995;52.154;4.498;2023-05-07T02:05:27;44.27;37.89;52.31;;
72415;Laerm;60995;52.154;4.498;2023-05-07T02:07:43;44.39;38.36;52.99;;
72415;Laerm;60995;52.154;4.498;2023-05-07T02:09:59;44.37;38.64;51.96;;
72415;Laerm;60995;52.154;4.498;2023-05-07T02:12:16;45.25;37.50;52.84;;
72415;Laerm;60995;52.154;4.498;2023-05-07T02:14:32;45.00;37.88;56.64;;
72415;Laerm;60995;52.154;4.498;2023-05-07T02:16:48;43.64;38.16;52.05;;
72415;Laerm;60995;52.154;4.498;2023-05-07T02:19:05;45.78;38.43;54.78;;
72415;Laerm;60995;52.154;4.498;2023-05-07T02:21:21;42.92;37.25;51.94;;
72415;Laerm;60995;52.154;4.498;2023-05-07T02:23:37;42.35;36.13;52.44;;
72415;Laerm;60995;52.154;4.498;2023-05-07T02:25:54;42.73;37.64;52.50;;
72415;Laerm;60995;52.154;4.498;2023-05-07T02:28:10;42.83;36.81;51.33;;
72415;Laerm;60995;52.154;4.498;2023-05-07T02:30:26;43.70;37.42;54.72;;
72415;Laerm;60995;52.154;4.498;2023-05-07T02:32:43;43.73;36.93;52.36;;
72415;Laerm;60995;52.154;4.498;2023-05-07T02:34:59;43.76;36.83;53.25;;
72415;Laerm;60995;52.154;4.498;2023-05-07T02:37:15;44.89;38.30;56.85;;
72415;Laerm;60995;52.154;4.498;2023-05-07T02:39:31;43.57;37.29;53.60;;
72415;Laerm;60995;52.154;4.498;2023-05-07T02:41:48;45.31;37.11;55.58;;
72415;Laerm;60995;52.154;4.498;2023-05-07T02:44:04;43.71;38.61;51.72;;
72415;Laerm;60995;52.154;4.498;2023-05-07T02:46:21;45.62;39.03;54.85;;
72415;Laerm;60995;52.154;4.498;2023-05-07T02:48:37;43.65;37.60;52.10;;
72415;Laerm;60995;52.154;4.498;2023-05-07T02:50:53;44.38;38.25;58.84;;
72415;Laerm;60995;52.154;4.498;2023-05-07T02:53:09;45.85;38.79;54.27;;
72415;Laerm;60995;52.154;4.498;2023-05-07T02:55:26;45.85;39.71;56.45;;
72415;Laerm;60995;52.154;4.498;2023-05-07T02:57:42;44.36;38.61;53.65;;
72415;Laerm;60995;52.154;4.498;2023-05-07T02:59:58;45.13;38.48;52.93;;
72415;Laerm;60995;52.154;4.498;2023-05-07T03:02:15;43.48;38.39;51.22;;
72415;Laerm;60995;52.154;4.498;2023-05-07T03:04:31;51.21;38.67;73.12;;
72415;Laerm;60995;52.154;4.498;2023-05-07T03:06:47;44.25;37.94;51.86;;
72415;Laerm;60995;52.154;4.498;2023-05-07T03:09:07;44.75;39.43;53.13;;
72415;Laerm;60995;52.154;4.498;2023-05-07T03:11:23;46.79;40.67;56.46;;
72415;Laerm;60995;52.154;4.498;2023-05-07T03:13:39;45.75;40.19;55.14;;
72415;Laerm;60995;52.154;4.498;2023-05-07T03:15:55;45.77;41.22;53.05;;
72415;Laerm;60995;52.154;4.498;2023-05-07T03:18:12;45.47;39.56;52.69;;
72415;Laerm;60995;52.154;4.498;2023-05-07T03:20:28;46.27;41.08;54.50;;
72415;Laerm;60995;52.154;4.498;2023-05-07T03:22:44;46.97;41.62;55.94;;
72415;Laerm;60995;52.154;4.498;2023-05-07T03:25:01;45.41;40.20;52.73;;
72415;Laerm;60995;52.154;4.498;2023-05-07T03:27:17;46.18;41.38;53.72;;
72415;Laerm;60995;52.154;4.498;2023-05-07T03:29:33;46.53;41.13;56.06;;
72415;Laerm;60995;52.154;4.498;2023-05-07T03:31:49;45.61;40.99;52.74;;
72415;Laerm;60995;52.154;4.498;2023-05-07T03:34:06;45.55;40.89;53.43;;
72415;Laerm;60995;52.154;4.498;2023-05-07T03:36:23;45.54;40.72;51.40;;
72415;Laerm;60995;52.154;4.498;2023-05-07T03:38:39;45.07;40.18;53.26;;
72415;Laerm;60995;52.154;4.498;2023-05-07T03:40:55;45.66;40.18;55.48;;
72415;Laerm;60995;52.154;4.498;2023-05-07T03:43:12;46.36;39.95;59.76;;
72415;Laerm;60995;52.154;4.498;2023-05-07T03:45:28;45.57;40.36;53.07;;
72415;Laerm;60995;52.154;4.498;2023-05-07T03:47:44;45.24;40.21;55.23;;
72415;Laerm;60995;52.154;4.498;2023-05-07T03:50:00;45.91;40.47;52.70;;
72415;Laerm;60995;52.154;4.498;2023-05-07T03:52:17;44.99;39.45;51.91;;
72415;Laerm;60995;52.154;4.498;2023-05-07T03:54:38;48.37;40.26;69.73;;
72415;Laerm;60995;52.154;4.498;2023-05-07T03:56:54;45.06;39.22;52.25;;
72415;Laerm;60995;52.154;4.498;2023-05-07T03:59:12;46.72;40.22;68.08;;
72415;Laerm;60995;52.154;4.498;2023-05-07T04:01:29;45.88;40.84;60.35;;
72415;Laerm;60995;52.154;4.498;2023-05-07T04:03:45;46.10;40.03;55.30;;
72415;Laerm;60995;52.154;4.498;2023-05-07T04:06:02;45.67;40.29;51.97;;
72415;Laerm;60995;52.154;4.498;2023-05-07T04:08:19;46.04;40.20;52.39;;
72415;Laerm;60995;52.154;4.498;2023-05-07T04:10:35;46.34;39.37;55.36;;
72415;Laerm;60995;52.154;4.498;2023-05-07T04:12:52;45.82;40.20;52.15;;
72415;Laerm;60995;52.154;4.498;2023-05-07T04:15:08;46.49;41.61;58.02;;
72415;Laerm;60995;52.154;4.498;2023-05-07T04:17:25;45.01;39.92;53.92;;
72415;Laerm;60995;52.154;4.498;2023-05-07T04:19:41;45.57;40.36;52.65;;
72415;Laerm;60995;52.154;4.498;2023-05-07T04:22:01;50.06;40.83;68.18;;
72415;Laerm;60995;52.154;4.498;2023-05-07T04:24:17;45.63;40.13;56.29;;
72415;Laerm;60995;52.154;4.498;2023-05-07T04:26:34;45.91;40.21;53.21;;
72415;Laerm;60995;52.154;4.498;2023-05-07T04:28:50;46.43;41.43;51.75;;
72415;Laerm;60995;52.154;4.498;2023-05-07T04:31:06;47.21;41.31;56.94;;
72415;Laerm;60995;52.154;4.498;2023-05-07T04:33:23;46.13;41.10;55.32;;
72415;Laerm;60995;52.154;4.498;2023-05-07T04:35:39;46.08;40.66;54.56;;
72415;Laerm;60995;52.154;4.498;2023-05-07T04:37:55;48.74;40.52;67.55;;
72415;Laerm;60995;52.154;4.498;2023-05-07T04:40:12;47.12;40.81;67.21;;
72415;Laerm;60995;52.154;4.498;2023-05-07T04:42:28;47.81;41.47;59.84;;
72415;Laerm;60995;52.154;4.498;2023-05-07T04:44:45;48.89;41.63;70.24;;
72415;Laerm;60995;52.154;4.498;2023-05-07T04:47:01;52.31;41.73;76.96;;
72415;Laerm;60995;52.154;4.498;2023-05-07T04:49:17;48.25;41.11;63.32;;
72415;Laerm;60995;52.154;4.498;2023-05-07T04:51:34;48.24;41.76;58.78;;
72415;Laerm;60995;52.154;4.498;2023-05-07T04:53:51;47.09;41.64;54.47;;
72415;Laerm;60995;52.154;4.498;2023-05-07T04:56:07;45.82;40.50;51.88;;
72415;Laerm;60995;52.154;4.498;2023-05-07T04:58:24;46.83;40.48;56.88;;
72415;Laerm;60995;52.154;4.498;2023-05-07T05:00:41;46.92;40.91;54.69;;
72415;Laerm;60995;52.154;4.498;2023-05-07T05:02:58;47.46;41.68;55.22;;
72415;Laerm;60995;52.154;4.498;2023-05-07T05:05:14;46.82;41.42;54.20;;
72415;Laerm;60995;52.154;4.498;2023-05-07T05:07:30;46.84;40.97;53.46;;
72415;Laerm;60995;52.154;4.498;2023-05-07T05:09:47;48.09;41.83;57.86;;
72415;Laerm;60995;52.154;4.498;2023-05-07T05:12:04;47.02;41.68;63.98;;
72415;Laerm;60995;52.154;4.498;2023-05-07T05:14:23;47.72;41.15;57.18;;
72415;Laerm;60995;52.154;4.498;2023-05-07T05:16:39;45.70;40.38;52.60;;
72415;Laerm;60995;52.154;4.498;2023-05-07T05:18:56;44.39;39.20;58.09;;
72415;Laerm;60995;52.154;4.498;2023-05-07T05:21:12;45.39;40.76;52.26;;
72415;Laerm;60995;52.154;4.498;2023-05-07T05:23:28;47.96;41.26;57.76;;
72415;Laerm;60995;52.154;4.498;2023-05-07T05:25:44;46.79;41.17;54.94;;
72415;Laerm;60995;52.154;4.498;2023-05-07T05:28:01;46.33;40.99;57.03;;
72415;Laerm;60995;52.154;4.498;2023-05-07T05:30:17;46.50;40.07;57.46;;
72415;Laerm;60995;52.154;4.498;2023-05-07T05:32:33;49.65;40.75;60.77;;
72415;Laerm;60995;52.154;4.498;2023-05-07T05:34:49;46.03;40.78;59.34;;
72415;Laerm;60995;52.154;4.498;2023-05-07T05:37:07;48.29;41.20;59.63;;
72415;Laerm;60995;52.154;4.498;2023-05-07T05:39:23;50.21;40.69;62.76;;
72415;Laerm;60995;52.154;4.498;2023-05-07T05:41:40;45.56;39.75;59.82;;
72415;Laerm;60995;52.154;4.498;2023-05-07T05:43:56;50.47;41.72;66.36;;
72415;Laerm;60995;52.154;4.498;2023-05-07T05:46:12;46.60;40.79;63.33;;
72415;Laerm;60995;52.154;4.498;2023-05-07T05:48:29;45.29;40.42;56.54;;
72415;Laerm;60995;52.154;4.498;2023-05-07T05:50:45;46.79;41.09;57.48;;
72415;Laerm;60995;52.154;4.498;2023-05-07T05:53:02;46.14;40.74;53.41;;
72415;Laerm;60995;52.154;4.498;2023-05-07T05:55:18;49.99;42.11;65.41;;
72415;Laerm;60995;52.154;4.498;2023-05-07T05:57:35;48.69;40.21;57.11;;
72415;Laerm;60995;52.154;4.498;2023-05-07T05:59:52;47.24;41.01;54.93;;
72415;Laerm;60995;52.154;4.498;2023-05-07T06:02:08;46.45;41.30;52.13;;
72415;Laerm;60995;52.154;4.498;2023-05-07T06:04:24;49.22;41.83;62.83;;
72415;Laerm;60995;52.154;4.498;2023-05-07T06:06:40;46.94;40.82;57.61;;
72415;Laerm;60995;52.154;4.498;2023-05-07T06:08:57;47.77;40.91;61.81;;
72415;Laerm;60995;52.154;4.498;2023-05-07T06:11:14;45.45;39.28;62.85;;
72415;Laerm;60995;52.154;4.498;2023-05-07T06:13:30;45.75;40.08;54.15;;
72415;Laerm;60995;52.154;4.498;2023-05-07T06:15:46;46.02;40.07;61.88;;
72415;Laerm;60995;52.154;4.498;2023-05-07T06:18:03;46.52;39.91;53.60;;
72415;Laerm;60995;52.154;4.498;2023-05-07T06:20:19;45.84;39.23;52.77;;
72415;Laerm;60995;52.154;4.498;2023-05-07T06:22:35;47.99;38.81;70.59;;
72415;Laerm;60995;52.154;4.498;2023-05-07T06:24:52;45.81;38.80;54.41;;
72415;Laerm;60995;52.154;4.498;2023-05-07T06:27:08;45.82;38.84;58.86;;
72415;Laerm;60995;52.154;4.498;2023-05-07T06:29:25;45.15;38.20;56.08;;
72415;Laerm;60995;52.154;4.498;2023-05-07T06:31:41;45.26;38.69;56.90;;
72415;Laerm;60995;52.154;4.498;2023-05-07T06:33:58;45.32;38.20;54.54;;
72415;Laerm;60995;52.154;4.498;2023-05-07T06:36:15;46.21;37.78;56.05;;
72415;Laerm;60995;52.154;4.498;2023-05-07T06:38:31;46.57;39.06;54.89;;
72415;Laerm;60995;52.154;4.498;2023-05-07T06:40:49;46.22;37.95;60.23;;
72415;Laerm;60995;52.154;4.498;2023-05-07T06:43:05;46.05;37.52;58.69;;
72415;Laerm;60995;52.154;4.498;2023-05-07T06:45:21;46.25;37.32;55.69;;
72415;Laerm;60995;52.154;4.498;2023-05-07T06:47:38;46.55;39.94;55.99;;
72415;Laerm;60995;52.154;4.498;2023-05-07T06:49:54;45.91;37.89;54.80;;
72415;Laerm;60995;52.154;4.498;2023-05-07T06:52:11;52.37;37.74;71.76;;
72415;Laerm;60995;52.154;4.498;2023-05-07T06:54:29;47.15;38.60;61.43;;
72415;Laerm;60995;52.154;4.498;2023-05-07T06:56:45;47.81;38.00;60.74;;
72415;Laerm;60995;52.154;4.498;2023-05-07T06:59:03;47.28;38.39;55.15;;
72415;Laerm;60995;52.154;4.498;2023-05-07T07:01:19;46.01;38.31;54.13;;
72415;Laerm;60995;52.154;4.498;2023-05-07T07:03:35;46.00;37.97;58.24;;
72415;Laerm;60995;52.154;4.498;2023-05-07T07:05:53;45.55;38.21;54.76;;
72415;Laerm;60995;52.154;4.498;2023-05-07T07:08:10;45.11;36.79;57.41;;
72415;Laerm;60995;52.154;4.498;2023-05-07T07:10:26;47.77;36.83;71.87;;
72415;Laerm;60995;52.154;4.498;2023-05-07T07:12:42;47.83;36.83;59.05;;
72415;Laerm;60995;52.154;4.498;2023-05-07T07:14:59;49.64;38.36;59.42;;
72415;Laerm;60995;52.154;4.498;2023-05-07T07:17:16;50.15;40.40;57.66;;
72415;Laerm;60995;52.154;4.498;2023-05-07T07:19:32;48.55;40.54;58.76;;
72415;Laerm;60995;52.154;4.498;2023-05-07T07:21:48;47.92;38.52;57.86;;
72415;Laerm;60995;52.154;4.498;2023-05-07T07:24:05;48.27;39.62;58.05;;
72415;Laerm;60995;52.154;4.498;2023-05-07T07:26:21;48.72;39.19;57.90;;
72415;Laerm;60995;52.154;4.498;2023-05-07T07:28:45;47.40;37.36;58.45;;
72415;Laerm;60995;52.154;4.498;2023-05-07T07:31:02;48.39;37.39;58.77;;
72415;Laerm;60995;52.154;4.498;2023-05-07T07:33:18;57.42;38.41;76.38;;
72415;Laerm;60995;52.154;4.498;2023-05-07T07:35:35;48.51;37.87;62.41;;
72415;Laerm;60995;52.154;4.498;2023-05-07T07:37:51;48.32;37.96;59.90;;
72415;Laerm;60995;52.154;4.498;2023-05-07T07:40:08;49.91;39.14;58.73;;
72415;Laerm;60995;52.154;4.498;2023-05-07T07:42:24;49.52;38.43;63.72;;
72415;Laerm;60995;52.154;4.498;2023-05-07T07:44:41;49.37;37.90;58.78;;
72415;Laerm;60995;52.154;4.498;2023-05-07T07:46:57;52.70;39.06;69.41;;
72415;Laerm;60995;52.154;4.498;2023-05-07T07:49:14;52.80;44.82;65.80;;
72415;Laerm;60995;52.154;4.498;2023-05-07T07:51:31;52.38;42.96;63.58;;
72415;Laerm;60995;52.154;4.498;2023-05-07T07:53:47;49.35;38.90;58.61;;
72415;Laerm;60995;52.154;4.498;2023-05-07T07:56:03;49.46;40.99;66.19;;
72415;Laerm;60995;52.154;4.498;2023-05-07T07:58:20;48.78;39.25;61.27;;
72415;Laerm;60995;52.154;4.498;2023-05-07T08:00:38;48.66;38.12;58.62;;
72415;Laerm;60995;52.154;4.498;2023-05-07T08:02:54;48.44;36.88;59.23;;
72415;Laerm;60995;52.154;4.498;2023-05-07T08:05:10;49.14;36.24;61.12;;
72415;Laerm;60995;52.154;4.498;2023-05-07T08:07:27;52.77;40.00;65.60;;
72415;Laerm;60995;52.154;4.498;2023-05-07T08:09:43;57.05;39.66;70.87;;
72415;Laerm;60995;52.154;4.498;2023-05-07T08:11:59;48.99;39.26;60.54;;
72415;Laerm;60995;52.154;4.498;2023-05-07T08:14:17;48.59;38.02;62.93;;
72415;Laerm;60995;52.154;4.498;2023-05-07T08:16:34;48.82;38.21;61.80;;
72415;Laerm;60995;52.154;4.498;2023-05-07T08:18:50;50.17;39.34;65.26;;
72415;Laerm;60995;52.154;4.498;2023-05-07T08:21:06;55.34;41.30;66.00;;
72415;Laerm;60995;52.154;4.498;2023-05-07T08:23:23;49.45;38.03;60.54;;
72415;Laerm;60995;52.154;4.498;2023-05-07T08:25:39;48.47;37.32;60.05;;
72415;Laerm;60995;52.154;4.498;2023-05-07T08:27:56;51.63;37.55;60.82;;
72415;Laerm;60995;52.154;4.498;2023-05-07T08:30:13;52.00;40.38;62.04;;
72415;Laerm;60995;52.154;4.498;2023-05-07T08:32:29;48.70;39.78;60.29;;
72415;Laerm;60995;52.154;4.498;2023-05-07T08:34:46;48.51;37.54;59.11;;
72415;Laerm;60995;52.154;4.498;2023-05-07T08:37:03;48.55;38.46;59.57;;
72415;Laerm;60995;52.154;4.498;2023-05-07T08:39:20;48.80;38.10;59.11;;
72415;Laerm;60995;52.154;4.498;2023-05-07T08:41:36;49.49;39.64;58.86;;
72415;Laerm;60995;52.154;4.498;2023-05-07T08:43:58;48.36;39.02;60.07;;
72415;Laerm;60995;52.154;4.498;2023-05-07T08:46:19;48.82;39.14;67.03;;
72415;Laerm;60995;52.154;4.498;2023-05-07T08:48:36;48.47;39.22;58.17;;
72415;Laerm;60995;52.154;4.498;2023-05-07T08:50:53;52.10;40.15;64.25;;
72415;Laerm;60995;52.154;4.498;2023-05-07T08:53:09;47.75;38.75;58.27;;
72415;Laerm;60995;52.154;4.498;2023-05-07T08:55:26;56.78;38.75;72.67;;
72415;Laerm;60995;52.154;4.498;2023-05-07T08:57:44;50.64;40.41;62.22;;
72415;Laerm;60995;52.154;4.498;2023-05-07T09:00:03;50.14;40.53;58.67;;
72415;Laerm;60995;52.154;4.498;2023-05-07T09:02:19;49.65;39.35;67.57;;
72415;Laerm;60995;52.154;4.498;2023-05-07T09:04:36;51.53;39.95;67.45;;
72415;Laerm;60995;52.154;4.498;2023-05-07T09:06:53;49.16;40.12;64.66;;
72415;Laerm;60995;52.154;4.498;2023-05-07T09:09:09;50.10;41.01;74.19;;
72415;Laerm;60995;52.154;4.498;2023-05-07T09:11:30;49.18;40.67;58.68;;
72415;Laerm;60995;52.154;4.498;2023-05-07T09:13:46;48.08;39.42;59.76;;
72415;Laerm;60995;52.154;4.498;2023-05-07T09:16:12;48.10;40.18;57.20;;
72415;Laerm;60995;52.154;4.498;2023-05-07T09:18:29;53.22;40.60;71.53;;
72415;Laerm;60995;52.154;4.498;2023-05-07T09:20:45;48.07;40.01;57.28;;
72415;Laerm;60995;52.154;4.498;2023-05-07T09:23:01;48.82;41.00;62.42;;
72415;Laerm;60995;52.154;4.498;2023-05-07T09:25:29;48.02;38.45;58.41;;
72415;Laerm;60995;52.154;4.498;2023-05-07T09:27:45;48.63;40.45;57.27;;
72415;Laerm;60995;52.154;4.498;2023-05-07T09:30:06;48.24;39.95;55.33;;
72415;Laerm;60995;52.154;4.498;2023-05-07T09:32:25;48.78;38.71;59.99;;
72415;Laerm;60995;52.154;4.498;2023-05-07T09:34:43;49.97;39.40;62.83;;
72415;Laerm;60995;52.154;4.498;2023-05-07T09:37:03;53.52;41.78;65.29;;
72415;Laerm;60995;52.154;4.498;2023-05-07T09:39:20;50.39;39.59;69.03;;
72415;Laerm;60995;52.154;4.498;2023-05-07T09:41:46;50.22;40.87;64.80;;
72415;Laerm;60995;52.154;4.498;2023-05-07T09:44:03;49.80;39.07;62.80;;
72415;Laerm;60995;52.154;4.498;2023-05-07T09:46:28;48.95;40.34;60.63;;
72415;Laerm;60995;52.154;4.498;2023-05-07T09:48:46;50.30;40.29;72.12;;
72415;Laerm;60995;52.154;4.498;2023-05-07T09:53:37;47.50;40.15;61.07;;
72415;Laerm;60995;52.154;4.498;2023-05-07T09:55:54;50.41;40.55;58.65;;
72415;Laerm;60995;52.154;4.498;2023-05-07T09:58:13;49.25;39.02;59.09;;
72415;Laerm;60995;52.154;4.498;2023-05-07T10:00:31;50.93;39.56;63.22;;
72415;Laerm;60995;52.154;4.498;2023-05-07T10:02:51;51.39;39.33;69.46;;
72415;Laerm;60995;52.154;4.498;2023-05-07T10:05:09;46.91;38.06;55.39;;
72415;Laerm;60995;52.154;4.498;2023-05-07T10:07:26;49.44;38.48;67.57;;
72415;Laerm;60995;52.154;4.498;2023-05-07T10:09:44;47.24;39.27;55.96;;
72415;Laerm;60995;52.154;4.498;2023-05-07T10:12:02;48.47;39.91;61.61;;
72415;Laerm;60995;52.154;4.498;2023-05-07T10:14:21;49.76;40.03;61.63;;
72415;Laerm;60995;52.154;4.498;2023-05-07T10:16:37;50.09;41.69;64.95;;
72415;Laerm;60995;52.154;4.498;2023-05-07T10:18:56;47.44;39.19;55.55;;
72415;Laerm;60995;52.154;4.498;2023-05-07T10:21:20;48.46;39.71;58.53;;
72415;Laerm;60995;52.154;4.498;2023-05-07T10:23:36;47.07;40.61;58.86;;
72415;Laerm;60995;52.154;4.498;2023-05-07T10:25:56;48.39;41.29;55.98;;
72415;Laerm;60995;52.154;4.498;2023-05-07T10:28:15;46.70;38.88;55.70;;
72415;Laerm;60995;52.154;4.498;2023-05-07T10:33:25;47.74;38.97;57.14;;
72415;Laerm;60995;52.154;4.498;2023-05-07T10:35:45;46.88;39.64;56.13;;
72415;Laerm;60995;52.154;4.498;2023-05-07T10:38:03;47.24;39.53;56.88;;
72415;Laerm;60995;52.154;4.498;2023-05-07T10:40:21;50.27;40.75;59.99;;
72415;Laerm;60995;52.154;4.498;2023-05-07T10:42:38;53.16;42.17;67.97;;
72415;Laerm;60995;52.154;4.498;2023-05-07T10:44:54;49.29;40.11;58.11;;
72415;Laerm;60995;52.154;4.498;2023-05-07T10:47:13;51.66;41.50;66.45;;
72415;Laerm;60995;52.154;4.498;2023-05-07T10:49:30;51.48;40.76;65.92;;
72415;Laerm;60995;52.154;4.498;2023-05-07T10:54:31;51.61;42.15;68.32;;
72415;Laerm;60995;52.154;4.498;2023-05-07T10:56:50;49.58;41.54;65.86;;
72415;Laerm;60995;52.154;4.498;2023-05-07T11:01:56;49.13;39.64;63.03;;
72415;Laerm;60995;52.154;4.498;2023-05-07T11:04:15;47.67;39.35;62.13;;
72415;Laerm;60995;52.154;4.498;2023-05-07T11:06:32;50.80;40.57;61.43;;
72415;Laerm;60995;52.154;4.498;2023-05-07T11:08:58;51.56;40.39;63.41;;
72415;Laerm;60995;52.154;4.498;2023-05-07T11:11:14;55.28;42.67;68.97;;
72415;Laerm;60995;52.154;4.498;2023-05-07T11:13:46;52.72;42.32;62.97;;
72415;Laerm;60995;52.154;4.498;2023-05-07T11:16:03;54.01;41.78;64.16;;
72415;Laerm;60995;52.154;4.498;2023-05-07T11:18:19;51.30;40.25;66.51;;
72415;Laerm;60995;52.154;4.498;2023-05-07T11:20:53;47.90;40.07;58.42;;
72415;Laerm;60995;52.154;4.498;2023-05-07T11:25:48;50.76;40.27;65.77;;
72415;Laerm;60995;52.154;4.498;2023-05-07T11:28:07;48.23;39.79;64.18;;
72415;Laerm;60995;52.154;4.498;2023-05-07T11:30:26;49.81;39.82;57.95;;
72415;Laerm;60995;52.154;4.498;2023-05-07T11:32:42;64.38;40.69;86.15;;
72415;Laerm;60995;52.154;4.498;2023-05-07T11:35:00;49.83;40.19;69.11;;
72415;Laerm;60995;52.154;4.498;2023-05-07T11:37:17;48.92;40.71;57.11;;
72415;Laerm;60995;52.154;4.498;2023-05-07T11:39:34;52.81;40.71;69.47;;
72415;Laerm;60995;52.154;4.498;2023-05-07T11:41:52;49.89;38.73;60.99;;
72415;Laerm;60995;52.154;4.498;2023-05-07T11:44:08;50.22;41.10;61.65;;
72415;Laerm;60995;52.154;4.498;2023-05-07T11:46:24;47.85;38.95;57.84;;
72415;Laerm;60995;52.154;4.498;2023-05-07T11:48:41;49.98;39.86;65.48;;
72415;Laerm;60995;52.154;4.498;2023-05-07T11:51:06;58.82;40.71;75.07;;
72415;Laerm;60995;52.154;4.498;2023-05-07T11:53:26;59.26;40.75;75.34;;
72415;Laerm;60995;52.154;4.498;2023-05-07T11:55:44;49.11;41.30;58.41;;
72415;Laerm;60995;52.154;4.498;2023-05-07T11:58:00;49.28;41.27;58.79;;
72415;Laerm;60995;52.154;4.498;2023-05-07T12:00:17;50.57;40.87;61.41;;
72415;Laerm;60995;52.154;4.498;2023-05-07T12:02:33;55.62;42.41;72.14;;
72415;Laerm;60995;52.154;4.498;2023-05-07T12:04:51;49.03;39.70;60.03;;
72415;Laerm;60995;52.154;4.498;2023-05-07T12:07:12;48.15;38.63;57.67;;
72415;Laerm;60995;52.154;4.498;2023-05-07T12:09:32;49.09;40.36;60.78;;
72415;Laerm;60995;52.154;4.498;2023-05-07T12:11:51;49.84;39.99;60.22;;
72415;Laerm;60995;52.154;4.498;2023-05-07T12:14:08;49.87;41.23;59.54;;
72415;Laerm;60995;52.154;4.498;2023-05-07T12:16:24;48.19;39.39;57.35;;
72415;Laerm;60995;52.154;4.498;2023-05-07T12:18:41;49.24;40.12;68.87;;
72415;Laerm;60995;52.154;4.498;2023-05-07T12:20:59;49.22;39.40;61.99;;
72415;Laerm;60995;52.154;4.498;2023-05-07T12:23:21;48.44;37.90;57.55;;
72415;Laerm;60995;52.154;4.498;2023-05-07T12:25:40;48.12;38.18;62.43;;
72415;Laerm;60995;52.154;4.498;2023-05-07T12:28:03;47.81;38.62;54.80;;
72415;Laerm;60995;52.154;4.498;2023-05-07T12:30:22;49.58;38.67;70.61;;
72415;Laerm;60995;52.154;4.498;2023-05-07T12:32:39;47.27;37.49;59.91;;
72415;Laerm;60995;52.154;4.498;2023-05-07T12:34:55;48.64;40.70;65.02;;
72415;Laerm;60995;52.154;4.498;2023-05-07T12:37:13;49.12;39.48;60.65;;
72415;Laerm;60995;52.154;4.498;2023-05-07T12:39:29;48.30;39.97;63.06;;
72415;Laerm;60995;52.154;4.498;2023-05-07T12:41:56;51.65;38.14;66.88;;
72415;Laerm;60995;52.154;4.498;2023-05-07T12:44:15;50.51;41.40;62.55;;
72415;Laerm;60995;52.154;4.498;2023-05-07T12:46:31;47.96;39.42;61.21;;
72415;Laerm;60995;52.154;4.498;2023-05-07T12:48:48;51.64;40.61;67.33;;
72415;Laerm;60995;52.154;4.498;2023-05-07T12:51:05;48.24;40.06;57.38;;
72415;Laerm;60995;52.154;4.498;2023-05-07T12:53:25;48.71;38.43;69.41;;
72415;Laerm;60995;52.154;4.498;2023-05-07T12:55:48;48.05;38.58;55.37;;
72415;Laerm;60995;52.154;4.498;2023-05-07T12:58:04;50.30;41.02;62.99;;
72415;Laerm;60995;52.154;4.498;2023-05-07T13:00:37;48.05;37.99;58.41;;
72415;Laerm;60995;52.154;4.498;2023-05-07T13:02:54;47.91;39.92;54.65;;